Trabzon — 9HA2783 — position and weather

sailwx.info

Track history (hours):
 
Tides and Currents Weather Stations Pressure Air Temp Water Temp Dewpoint Dewpoint Depression Visibility Wind Speed Wind Dir Waves Ship Positions

Trabzon

Last reported at 2017-Apr-14 15:43 UTC. Time now 2017-Apr-24 13:08 UTC.
Position N 02°05' E 102°06'.
Warning: this ship's position is 9 days out of date.

Length 229 m; draft 7.3 m.

Type: Cargo ship. MMSI: 215679000.

Date/timePositionNaut miles runAvg speedWind from/ knotsBaromVisibWave heightAir tempDewpointWater temp
2017-Apr-14 15:43N 02°05' E 102°06'1611.2
2017-Apr-14 14:17N 01°55' E 102°19'911.2
2017-Apr-14 13:30N 01°52' E 102°27'611.4
2017-Apr-14 13:00N 01°49' E 102°32'911.8
2017-Apr-14 12:13N 01°46' E 102°41'312.6
2017-Apr-14 12:00N 01°45' E 102°43'712.9
2017-Apr-14 11:26N 01°42' E 102°50'3513.5
2017-Apr-14 08:49N 01°21' E 103°18'613.1
2017-Apr-14 08:24N 01°17' E 103°22'513.2
2017-Apr-14 08:00N 01°14' E 103°27'713.6
2017-Apr-14 07:30N 01°12' E 103°33'5 9.6
2017-Apr-14 07:00N 01°11' E 103°38'510.8
2017-Apr-14 06:30N 01°09' E 103°43'4 8.8
2017-Apr-14 06:00N 01°10' E 103°47'612.2
2017-Apr-14 05:30N 01°12' E 103°53'611.5
2017-Apr-14 05:00N 01°15' E 103°58'712.7
2017-Apr-14 04:27N 01°16' E 104°05'  
2017-Apr-05 13:27N 31°08' E 122°53'  
Track history (hours):
 
Tides and Currents Weather Stations Pressure Air Temp Water Temp Dewpoint Dewpoint Depression Visibility Wind Speed Wind Dir Waves Ship Positions

Trabzon

Last reported at 2017-Apr-14 15:43 UTC. Time now 2017-Apr-24 13:08 UTC.
Position N 02°05' E 102°06'.
Warning: this ship's position is 9 days out of date.

Length 229 m; draft 7.3 m.

Type: Cargo ship. MMSI: 215679000.

Date/timePositionNaut miles runAvg speedWind from/ knotsBaromVisibWave heightAir tempDewpointWater temp
2017-Apr-14 15:43N 02°05' E 102°06'1611.2
2017-Apr-14 14:17N 01°55' E 102°19'911.2
2017-Apr-14 13:30N 01°52' E 102°27'611.4
2017-Apr-14 13:00N 01°49' E 102°32'911.8
2017-Apr-14 12:13N 01°46' E 102°41'312.6
2017-Apr-14 12:00N 01°45' E 102°43'712.9
2017-Apr-14 11:26N 01°42' E 102°50'3513.5
2017-Apr-14 08:49N 01°21' E 103°18'613.1
2017-Apr-14 08:24N 01°17' E 103°22'513.2
2017-Apr-14 08:00N 01°14' E 103°27'713.6
2017-Apr-14 07:30N 01°12' E 103°33'5 9.6
2017-Apr-14 07:00N 01°11' E 103°38'510.8
2017-Apr-14 06:30N 01°09' E 103°43'4 8.8
2017-Apr-14 06:00N 01°10' E 103°47'612.2
2017-Apr-14 05:30N 01°12' E 103°53'611.5
2017-Apr-14 05:00N 01°15' E 103°58'712.7
2017-Apr-14 04:27N 01°16' E 104°05'  
2017-Apr-05 13:27N 31°08' E 122°53'  

Dump ship's entire track history